createdAt,value
2022-08-07T00:01:44.730Z,22.62
2022-08-07T00:06:29.512Z,22.56
2022-08-07T00:11:35.640Z,22.47
2022-08-07T00:16:52.401Z,22.39
2022-08-07T00:21:57.361Z,22.32
2022-08-07T00:27:07.392Z,22.22
2022-08-07T00:32:13.472Z,22.13
2022-08-07T00:37:17.423Z,22.06
2022-08-07T00:42:19.085Z,22.00
2022-08-07T00:48:07.916Z,21.94
2022-08-07T00:52:53.804Z,21.87
2022-08-07T00:57:56.741Z,21.80
2022-08-07T01:02:58.617Z,21.71
2022-08-07T01:08:00.385Z,21.63
2022-08-07T01:13:02.767Z,21.56
2022-08-07T01:18:05.861Z,21.48
2022-08-07T01:23:13.919Z,21.37
2022-08-07T01:28:17.086Z,21.27
2022-08-07T01:33:22.594Z,21.20
2022-08-07T01:38:29.293Z,21.11
2022-08-07T01:43:38.485Z,21.03
2022-08-07T01:48:46.794Z,20.96
2022-08-07T01:54:12.341Z,20.89
2022-08-07T01:59:30.904Z,20.82
2022-08-07T02:04:56.377Z,20.75
2022-08-07T02:10:03.778Z,20.69
2022-08-07T02:15:12.764Z,20.67
2022-08-07T02:20:23.473Z,20.64
2022-08-07T02:26:10.688Z,20.57
2022-08-07T02:30:55.387Z,20.48
2022-08-07T02:36:30.778Z,20.39
2022-08-07T02:41:22.138Z,20.33
2022-08-07T02:46:31.522Z,20.28
2022-08-07T02:51:42.510Z,20.25
2022-08-07T02:56:55.068Z,20.21
2022-08-07T03:02:02.931Z,20.20
2022-08-07T03:07:18.117Z,20.14
2022-08-07T03:12:30.794Z,20.13
2022-08-07T03:17:53.608Z,20.09
2022-08-07T03:22:58.713Z,20.04
2022-08-07T03:28:09.631Z,20.01
2022-08-07T03:33:24.481Z,19.94
2022-08-07T03:38:36.438Z,19.88
2022-08-07T03:43:44.032Z,19.81
2022-08-07T03:49:03.201Z,19.72
2022-08-07T03:54:35.171Z,19.65
2022-08-07T03:59:32.985Z,19.57
2022-08-07T04:04:35.153Z,19.49
2022-08-07T04:09:45.505Z,19.44
2022-08-07T04:14:58.377Z,19.38
2022-08-07T04:20:05.171Z,19.35
2022-08-07T04:25:12.596Z,19.33
2022-08-07T04:30:35.663Z,19.33
2022-08-07T04:35:50.593Z,19.33
2022-08-07T04:40:56.503Z,19.36
2022-08-07T04:47:07.573Z,19.38
2022-08-07T04:52:51.259Z,19.43
2022-08-07T04:58:34.934Z,19.50
2022-08-07T05:04:06.725Z,19.57
2022-08-07T05:09:42.918Z,19.65
2022-08-07T05:14:59.078Z,19.73
2022-08-07T05:20:09.482Z,19.80
2022-08-07T05:25:36.485Z,19.89
2022-08-07T05:30:39.846Z,19.97
2022-08-07T05:35:43.075Z,20.05
2022-08-07T05:40:50.575Z,20.10
2022-08-07T05:45:57.240Z,20.17
2022-08-07T05:56:06.908Z,20.29
2022-08-07T06:01:16.856Z,20.38
2022-08-07T06:06:24.316Z,20.46
2022-08-07T06:11:34.127Z,20.53
2022-08-07T06:16:38.790Z,20.62
2022-08-07T06:22:14.256Z,20.71
2022-08-07T06:27:05.822Z,20.80
2022-08-07T06:32:09.516Z,20.89
2022-08-07T06:37:17.224Z,20.98
2022-08-07T06:42:38.152Z,21.06
2022-08-07T06:47:56.978Z,21.14
2022-08-07T06:53:04.279Z,21.26
2022-08-07T06:58:11.081Z,21.38
2022-08-07T07:03:48.640Z,21.51
2022-08-07T07:08:49.398Z,21.61
2022-08-07T07:13:58.741Z,21.73
2022-08-07T07:19:37.295Z,21.86
2022-08-07T07:24:28.680Z,22.01
2022-08-07T07:29:39.812Z,22.13
2022-08-07T07:35:04.054Z,22.26
2022-08-07T07:40:14.972Z,22.39
2022-08-07T07:45:19.284Z,22.53
2022-08-07T07:50:33.518Z,22.67
2022-08-07T07:55:45.767Z,22.77
2022-08-07T08:00:58.558Z,22.91
2022-08-07T08:06:01.627Z,23.02
2022-08-07T08:11:06.004Z,23.14
2022-08-07T08:16:18.135Z,23.30
2022-08-07T08:21:59.085Z,23.44
2022-08-07T08:27:09.591Z,23.59
2022-08-07T08:32:18.600Z,23.70
2022-08-07T08:38:01.388Z,23.84
2022-08-07T08:43:04.710Z,23.98
2022-08-07T08:48:46.806Z,24.12
2022-08-07T08:54:11.018Z,24.25
2022-08-07T08:59:18.392Z,24.37
2022-08-07T09:04:55.139Z,24.52
2022-08-07T09:10:08.925Z,24.65
2022-08-07T09:16:20.232Z,24.78
2022-08-07T09:21:06.387Z,24.93
2022-08-07T09:26:39.457Z,25.06
2022-08-07T09:32:18.733Z,25.20
2022-08-07T09:37:53.567Z,25.33
2022-08-07T09:43:40.166Z,25.46
2022-08-07T09:50:01.671Z,25.60
2022-08-07T09:54:54.605Z,25.73
2022-08-07T10:00:05.481Z,25.90
2022-08-07T10:06:00.305Z,26.05
2022-08-07T10:11:59.542Z,26.20
2022-08-07T10:16:59.727Z,26.37
2022-08-07T10:22:36.592Z,26.48
2022-08-07T10:27:57.824Z,26.61
2022-08-07T10:33:03.332Z,26.74
2022-08-07T10:38:48.362Z,26.89
2022-08-07T10:44:07.879Z,27.02
2022-08-07T10:49:49.398Z,27.19
2022-08-07T10:55:26.566Z,27.31
2022-08-07T11:01:11.710Z,27.40
2022-08-07T11:06:21.955Z,27.51
2022-08-07T11:12:02.455Z,27.58
2022-08-07T11:17:23.193Z,27.70
2022-08-07T11:23:11.681Z,27.81
2022-08-07T11:28:25.349Z,27.90
2022-08-07T11:33:58.575Z,27.98
2022-08-07T11:39:10.309Z,28.06
2022-08-07T11:44:52.627Z,27.90
2022-08-07T11:50:30.247Z,27.93
2022-08-07T11:56:14.036Z,27.99
2022-08-07T12:02:00.951Z,28.05
2022-08-07T12:07:27.092Z,28.14
2022-08-07T12:12:37.909Z,28.18
2022-08-07T12:17:59.036Z,28.25
2022-08-07T12:23:21.391Z,28.28
2022-08-07T12:29:03.858Z,28.31
2022-08-07T12:34:11.254Z,28.38
2022-08-07T12:39:42.516Z,28.50
2022-08-07T12:44:42.868Z,28.60
2022-08-07T12:50:38.218Z,28.68
2022-08-07T12:56:02.417Z,28.64
2022-08-07T13:01:23.182Z,28.73
2022-08-07T13:06:54.250Z,28.92
2022-08-07T13:12:56.465Z,29.10
2022-08-07T13:18:11.039Z,29.04
2022-08-07T13:24:00.578Z,29.00
2022-08-07T13:29:13.082Z,29.13
2022-08-07T13:34:35.860Z,29.35
2022-08-07T13:40:35.610Z,29.55
2022-08-07T13:46:12.526Z,29.72
2022-08-07T13:51:01.214Z,29.68
2022-08-07T13:56:05.539Z,29.63
2022-08-07T14:01:13.580Z,29.78
2022-08-07T14:06:16.061Z,29.87
2022-08-07T14:11:22.975Z,30.06
2022-08-07T14:16:32.408Z,30.25
2022-08-07T14:22:04.027Z,30.42
2022-08-07T14:28:11.041Z,30.45
2022-08-07T14:32:54.521Z,30.65
2022-08-07T14:38:05.801Z,30.85
2022-08-07T14:48:37.506Z,31.15
2022-08-07T14:54:08.747Z,31.28
2022-08-07T14:59:13.985Z,31.37
2022-08-07T15:04:33.534Z,31.45
2022-08-07T15:09:59.696Z,31.53
2022-08-07T15:20:55.172Z,31.77
2022-08-07T15:25:59.501Z,31.89
2022-08-07T15:31:06.450Z,31.97
2022-08-07T15:36:09.538Z,32.01
2022-08-07T15:46:49.916Z,32.03
2022-08-07T15:57:00.739Z,32.02
2022-08-07T16:02:04.197Z,31.92
2022-08-07T16:08:30.695Z,31.84
2022-08-07T16:13:04.747Z,31.75
2022-08-07T16:18:49.534Z,31.63
2022-08-07T16:24:34.531Z,31.54
2022-08-07T16:30:30.248Z,31.44
2022-08-07T16:35:51.528Z,31.36
2022-08-07T16:41:17.417Z,31.23
2022-08-07T16:52:51.908Z,30.97
2022-08-07T16:58:01.700Z,30.84
2022-08-07T17:03:58.473Z,30.67
2022-08-07T17:09:13.827Z,30.58
2022-08-07T17:14:23.686Z,30.47
2022-08-07T17:20:02.033Z,30.26
2022-08-07T17:25:16.462Z,30.11
2022-08-07T17:30:20.511Z,30.00
2022-08-07T17:35:54.713Z,29.90
2022-08-07T17:42:01.195Z,29.85
2022-08-07T17:46:54.909Z,29.78
2022-08-07T17:52:10.610Z,29.75
2022-08-07T17:57:58.679Z,29.72
2022-08-07T18:03:00.822Z,29.66
2022-08-07T18:08:23.906Z,29.56
2022-08-07T18:13:51.130Z,29.39
2022-08-07T18:21:02.912Z,29.26
2022-08-07T18:24:40.971Z,29.10
2022-08-07T18:30:30.659Z,28.96
2022-08-07T18:35:57.417Z,28.82
2022-08-07T18:41:16.928Z,28.72
2022-08-07T18:46:32.032Z,28.63
2022-08-07T18:52:52.938Z,28.55
2022-08-07T18:58:14.406Z,28.39
2022-08-07T19:03:37.466Z,28.27
2022-08-07T19:08:55.701Z,28.16
2022-08-07T19:14:51.909Z,28.03
2022-08-07T19:20:03.470Z,27.91
2022-08-07T19:26:22.607Z,27.78
2022-08-07T19:31:04.084Z,27.66
2022-08-07T19:36:00.088Z,27.54
2022-08-07T19:41:02.692Z,27.41
2022-08-07T19:46:10.212Z,27.31
2022-08-07T19:51:20.053Z,27.18
2022-08-07T19:58:01.692Z,27.07
2022-08-07T20:01:57.839Z,26.95
2022-08-07T20:07:01.165Z,26.85
2022-08-07T20:12:34.923Z,26.71
2022-08-07T20:17:27.020Z,26.58
2022-08-07T20:22:33.924Z,26.48
2022-08-07T20:27:45.964Z,26.38
2022-08-07T20:32:53.945Z,26.28
2022-08-07T20:37:59.627Z,26.12
2022-08-07T20:43:09.735Z,26.04
2022-08-07T20:48:30.304Z,25.93
2022-08-07T20:54:03.984Z,25.79
2022-08-07T20:59:05.184Z,25.67
2022-08-07T21:04:22.799Z,25.58
2022-08-07T21:09:53.274Z,25.47
2022-08-07T21:15:03.232Z,25.39
2022-08-07T21:20:09.821Z,25.30
2022-08-07T21:25:20.576Z,25.22
2022-08-07T21:30:32.884Z,25.12
2022-08-07T21:36:05.906Z,25.04
2022-08-07T21:41:24.713Z,24.95
2022-08-07T21:46:40.891Z,24.87
2022-08-07T21:52:09.051Z,24.79
2022-08-07T21:57:44.549Z,24.72
2022-08-07T22:03:17.197Z,24.65
2022-08-07T22:08:56.992Z,24.58
2022-08-07T22:14:05.188Z,24.53
2022-08-07T22:19:29.452Z,24.48
2022-08-07T22:24:37.639Z,24.44
2022-08-07T22:29:54.445Z,24.40
2022-08-07T22:35:02.110Z,24.38
2022-08-07T22:40:13.170Z,24.33
2022-08-07T22:46:21.406Z,24.32
2022-08-07T22:51:22.053Z,24.26
2022-08-07T22:56:47.412Z,24.23
2022-08-07T23:02:22.214Z,24.16
2022-08-07T23:07:41.790Z,24.11
2022-08-07T23:13:07.476Z,24.02
2022-08-07T23:18:42.423Z,23.96
2022-08-07T23:24:11.842Z,23.89
2022-08-07T23:30:35.938Z,23.83
2022-08-07T23:35:22.932Z,23.71
2022-08-07T23:40:53.024Z,23.61
2022-08-07T23:46:14.061Z,23.51
2022-08-07T23:53:16.958Z,23.43
2022-08-07T23:56:54.906Z,23.33
